Hope, Canada
Current Conditions -  °F | °C
As of 10:30 AM on Sunday 23 Nov 2014 (Local Time) from CYHE Reporting Station
Haze Haze  
Wind Chill: 38°   Ceiling: 3600
Heat Index: 41°   Visibility: 4mi
Dew Point: 41°   Wind: 5mph
Humidity: 100%   Direction: 100°E
Pressure: 30"   Gusts: NA
Location:  49.36°N, 121.5°W
Report Text: CYHE 231830Z AUTO 10004KT 040V120 4SM UP BR FEW014 SCT025 OVC036 05/05 A3000 RMK PRESRR SLP159
Loading
Personal Weather Stations






























Interactive Weather Map New forecast layout! Learn more

10-Day Weather Forecast

Advertisements
Track Severe Weather on mobile